Haslemere, United Kingdom
Current Conditions -  °F | °C
As of 1:50 PM on Saturday 25 Oct 2014 (Local Time) from EGLF Reporting Station
Scattered Clouds Scattered Clouds  
Wind Chill: 57°   Ceiling: Unl
Heat Index: 57°   Visibility: 6mi
Dew Point: 45°   Wind: 10mph
Humidity: 63%   Direction: 250°WSW
Pressure: 30.09"   Gusts: NA
Location:  51.09°N, 0.71°W
Report Text: EGLF 251250Z 25009KT 220V280 9999 FEW023 SCT044 14/07 Q1019
Loading
Personal Weather Stations






























Interactive Weather Map
Tropical Storm Tracking
New forecast layout! Learn more

10-Day Weather Forecast

Advertisements
Track Severe Weather on mobile